Time;durP1;ratioP1;P1;durP2;ratioP2;P2;SDS_P1;SDS_P2;PMS_P1;PMS_P2;Temp;Humidity;BMP_temperature;BMP_pressure;BME280_temperature;BME280_humidity;BME280_pressure;Samples;Min_cycle;Max_cycle;Signal;HPM_P1;HPM_P2
2022/05/26 00:01:48;;;;;;;;;;;;;;;22.09;46.87;101008.44;5012278;28;4191;-62
2022/05/26 00:04:15;;;;;;;;;;;;;;;22.10;46.87;101012.81;5019235;28;5301;-62
2022/05/26 00:06:41;;;;;;;;;;;;;;;22.10;46.81;101004.16;5012440;28;4222;-62
2022/05/26 00:09:08;;;;;;;;;;;;;;;22.10;46.66;101004.16;5017146;28;5412;-62
2022/05/26 00:11:35;;;;;;;;;;;;;;;22.09;46.71;101008.44;5017069;28;4146;-62
2022/05/26 00:14:07;;;;;;;;;;;;;;;22.09;46.63;101004.84;5013700;28;4330;-62
2022/05/26 00:16:36;;;;;;;;;;;;;;;22.09;46.68;100996.91;5015146;28;4206;-63
2022/05/26 00:19:03;;;;;;;;;;;;;;;22.08;46.69;101004.09;5016501;28;4251;-63
2022/05/26 00:21:29;;;;;;;;;;;;;;;22.09;46.70;100999.06;5011974;28;4250;-63
2022/05/26 00:23:56;;;;;;;;;;;;;;;22.08;46.66;100998.31;5014402;28;4252;-63
2022/05/26 00:26:22;;;;;;;;;;;;;;;22.08;46.85;101004.09;5016157;28;5441;-63
2022/05/26 00:28:49;;;;;;;;;;;;;;;22.08;46.95;101001.22;5017522;28;5531;-63
2022/05/26 00:31:15;;;;;;;;;;;;;;;22.08;46.71;100991.78;5015882;28;4255;-63
2022/05/26 00:33:42;;;;;;;;;;;;;;;22.07;46.66;100996.81;5015166;28;4240;-63
2022/05/26 00:36:09;;;;;;;;;;;;;;;22.08;46.69;100988.91;5014381;28;4078;-63
2022/05/26 00:38:35;;;;;;;;;;;;;;;22.07;46.70;100996.81;5012382;28;4257;-63
2022/05/26 00:41:02;;;;;;;;;;;;;;;22.07;46.64;100991.06;5017189;28;4284;-63
2022/05/26 00:43:29;;;;;;;;;;;;;;;22.08;46.59;100991.78;5015751;28;4358;-63
2022/05/26 00:45:56;;;;;;;;;;;;;;;22.07;46.68;100993.94;5016952;28;4537;-63
2022/05/26 00:48:23;;;;;;;;;;;;;;;22.07;46.70;100996.81;5014210;28;4296;-63
2022/05/26 00:50:51;;;;;;;;;;;;;;;22.06;46.76;100989.59;5015045;28;4300;-63
2022/05/26 00:53:30;;;;;;;;;;;;;;;22.08;46.64;101003.34;5016259;28;4200;-63
2022/05/26 00:56:22;;;;;;;;;;;;;;;22.08;46.72;101000.44;5016176;28;4172;-63
2022/05/26 00:58:49;;;;;;;;;;;;;;;22.06;46.76;101001.13;5017207;28;4189;-63
2022/05/26 01:01:16;;;;;;;;;;;;;;;22.06;46.75;100994.59;5014107;28;5286;-63
2022/05/26 01:03:43;;;;;;;;;;;;;;;22.05;46.68;101005.41;5015395;28;4126;-63
2022/05/26 01:06:29;;;;;;;;;;;;;;;22.06;46.89;101006.88;5017217;28;4052;-63
2022/05/26 01:09:03;;;;;;;;;;;;;;;22.06;46.93;101001.13;5014163;28;5311;-63
2022/05/26 01:11:31;;;;;;;;;;;;;;;22.05;46.67;100999.63;5013360;28;4055;-63
2022/05/26 01:13:59;;;;;;;;;;;;;;;22.04;46.68;100998.16;5012269;28;5354;-63
2022/05/26 01:16:31;;;;;;;;;;;;;;;22.04;46.85;100998.16;5009429;28;4074;-63
2022/05/26 01:19:23;;;;;;;;;;;;;;;22.05;46.50;100988.09;5013956;28;4381;-63
2022/05/26 01:22:18;;;;;;;;;;;;;;;22.04;46.78;100995.28;5017765;28;5221;-63
2022/05/26 01:24:56;;;;;;;;;;;;;;;22.04;46.68;100991.66;5016587;28;5294;-63
2022/05/26 01:27:38;;;;;;;;;;;;;;;22.04;46.86;100992.38;5014178;28;4198;-63
2022/05/26 01:30:23;;;;;;;;;;;;;;;22.04;46.69;100992.38;5011697;28;4170;-63
2022/05/26 01:33:03;;;;;;;;;;;;;;;22.03;46.87;100993.78;5016018;28;4206;-63
2022/05/26 01:35:30;;;;;;;;;;;;;;;22.04;46.63;100997.41;5014490;28;4188;-63
2022/05/26 01:38:03;;;;;;;;;;;;;;;22.03;46.84;100996.66;5013408;28;4188;-63
2022/05/26 01:40:29;;;;;;;;;;;;;;;22.02;46.66;100995.19;5030796;28;4282;-63
2022/05/26 01:43:08;;;;;;;;;;;;;;;22.03;46.96;100993.03;5016157;28;4086;-68
2022/05/26 01:45:49;;;;;;;;;;;;;;;22.02;46.86;101000.94;5014090;28;4198;-62
2022/05/26 01:48:16;;;;;;;;;;;;;;;22.01;46.73;100993.69;5015300;28;4152;-62
2022/05/26 01:51:03;;;;;;;;;;;;;;;22.02;46.63;100989.41;5017313;28;4107;-62
2022/05/26 01:53:48;;;;;;;;;;;;;;;22.02;46.70;100998.06;5015681;28;5330;-62
2022/05/26 01:56:16;;;;;;;;;;;;;;;22.02;46.79;100997.31;5015813;28;4211;-62
2022/05/26 01:58:44;;;;;;;;;;;;;;;22.02;46.77;101000.94;5014179;28;5334;-62
2022/05/26 02:01:11;;;;;;;;;;;;;;;22.01;46.69;100996.56;5013524;28;5347;-62
2022/05/26 02:03:39;;;;;;;;;;;;;;;22.00;46.68;101000.88;5016567;28;4301;-62
2022/05/26 02:06:15;;;;;;;;;;;;;;;22.00;46.68;100992.22;5015649;28;4015;-62
2022/05/26 02:08:42;;;;;;;;;;;;;;;22.01;46.56;100999.44;5015074;28;5782;-62
2022/05/26 02:11:12;;;;;;;;;;;;;;;22.00;46.65;100995.09;5015540;28;5321;-62
2022/05/26 02:13:42;;;;;;;;;;;;;;;22.00;46.86;100994.34;5015825;28;5449;-62
2022/05/26 02:16:10;;;;;;;;;;;;;;;22.00;46.70;100997.97;5007794;28;4141;-62
2022/05/26 02:18:38;;;;;;;;;;;;;;;21.99;46.70;100987.84;5016425;28;4256;-63
2022/05/26 02:21:10;;;;;;;;;;;;;;;21.99;46.79;100996.50;5016343;28;4035;-62
2022/05/26 02:23:44;;;;;;;;;;;;;;;22.00;46.67;100997.25;5016948;28;4160;-62
2022/05/26 02:26:10;;;;;;;;;;;;;;;21.99;46.66;100990.75;5015907;28;4356;-62
2022/05/26 02:31:22;;;;;;;;;;;;;;;21.99;46.80;100990.75;5018395;28;4240;-62
2022/05/26 02:33:50;;;;;;;;;;;;;;;21.99;46.68;100987.84;5015550;28;4023;-62
2022/05/26 02:36:16;;;;;;;;;;;;;;;21.98;46.74;100989.25;5015455;28;4149;-62
2022/05/26 02:38:42;;;;;;;;;;;;;;;21.98;46.51;100977.72;5013832;28;4274;-62
2022/05/26 02:41:09;;;;;;;;;;;;;;;21.99;46.64;100995.75;5014197;28;4222;-62
2022/05/26 02:43:35;;;;;;;;;;;;;;;21.99;46.80;100984.97;5015301;28;4169;-62
2022/05/26 02:46:23;;;;;;;;;;;;;;;21.98;46.61;100989.25;5013036;28;4189;-62
2022/05/26 02:49:04;;;;;;;;;;;;;;;21.98;46.61;100992.13;5017530;28;4319;-65
2022/05/26 02:51:39;;;;;;;;;;;;;;;21.88;44.26;100997.47;5018290;28;4240;-62
2022/05/26 02:54:12;;;;;;;;;;;;;;;21.89;44.00;100990.31;5020633;28;4264;-61
2022/05/26 02:56:42;;;;;;;;;;;;;;;21.91;43.89;100996.16;5016211;28;4228;-61
2022/05/26 02:59:21;;;;;;;;;;;;;;;21.89;44.14;100988.16;5018755;28;4151;-62
2022/05/26 03:01:49;;;;;;;;;;;;;;;21.92;44.72;100991.84;5015550;28;4169;-61
2022/05/26 03:04:19;;;;;;;;;;;;;;;21.92;44.88;100986.09;5022380;28;4242;-61
2022/05/26 03:06:50;;;;;;;;;;;;;;;21.91;44.99;100985.34;5017787;28;4377;-61
2022/05/26 03:09:16;;;;;;;;;;;;;;;21.92;45.04;100986.09;5017811;28;4215;-61
2022/05/26 03:11:44;;;;;;;;;;;;;;;21.93;45.22;100978.94;5017363;28;5345;-61
2022/05/26 03:14:10;;;;;;;;;;;;;;;21.94;45.28;100991.94;5017962;28;4276;-61
2022/05/26 03:16:37;;;;;;;;;;;;;;;21.93;45.52;100993.34;5017914;28;4279;-62
2022/05/26 03:19:05;;;;;;;;;;;;;;;21.92;45.73;100986.84;5015687;28;4268;-61
2022/05/26 03:21:31;;;;;;;;;;;;;;;21.93;45.40;100993.34;5019856;28;4840;-62
2022/05/26 03:23:57;;;;;;;;;;;;;;;21.92;45.52;100992.63;5018477;28;4268;-62
2022/05/26 03:26:24;;;;;;;;;;;;;;;21.93;45.96;100981.81;5017879;28;4207;-61
2022/05/26 03:28:50;;;;;;;;;;;;;;;21.94;45.94;100986.19;5015033;28;5375;-62
2022/05/26 03:31:40;;;;;;;;;;;;;;;21.93;45.63;100988.31;5016553;28;4301;-61
2022/05/26 03:42:21;;;;;;;;;;;;;;;21.93;45.45;100987.59;5017078;28;5465;-61
2022/05/26 03:44:47;;;;;;;;;;;;;;;21.92;45.77;100986.84;5013027;28;4531;-62
2022/05/26 03:47:14;;;;;;;;;;;;;;;21.93;45.68;100987.59;5016271;28;4368;-61
2022/05/26 03:49:40;;;;;;;;;;;;;;;21.92;45.89;100983.97;5019265;28;4258;-61
2022/05/26 03:52:07;;;;;;;;;;;;;;;21.92;45.97;100997.63;5016228;28;5882;-61
2022/05/26 03:54:33;;;;;;;;;;;;;;;21.92;45.76;100988.97;5015748;28;5801;-62
2022/05/26 03:56:59;;;;;;;;;;;;;;;21.91;45.99;100996.88;5016586;28;4148;-61
2022/05/26 03:59:26;;;;;;;;;;;;;;;21.92;45.97;101003.38;5012573;28;4324;-65
2022/05/26 04:01:52;;;;;;;;;;;;;;;21.91;46.24;101008.41;5016888;28;4349;-61
2022/05/26 04:04:19;;;;;;;;;;;;;;;21.92;45.90;101009.16;5017231;28;4230;-61
2022/05/26 04:06:45;;;;;;;;;;;;;;;21.91;46.01;101008.41;5016497;28;4324;-61
2022/05/26 04:09:12;;;;;;;;;;;;;;;21.91;45.94;101007.69;5019230;28;4253;-61
2022/05/26 04:11:38;;;;;;;;;;;;;;;21.91;46.21;101007.69;5014641;28;5335;-61
2022/05/26 04:14:04;;;;;;;;;;;;;;;21.91;45.90;101007.69;5018550;28;5835;-61
2022/05/26 04:16:31;;;;;;;;;;;;;;;21.90;46.07;101006.94;5014800;28;4251;-62
2022/05/26 04:18:57;;;;;;;;;;;;;;;21.90;45.96;101009.84;5015884;28;4273;-62
2022/05/26 04:21:23;;;;;;;;;;;;;;;21.90;46.15;101017.75;5015198;28;5506;-61
2022/05/26 04:23:50;;;;;;;;;;;;;;;21.91;46.08;101016.34;5016174;28;4477;-61
2022/05/26 04:26:16;;;;;;;;;;;;;;;21.91;46.19;101013.44;5014727;28;4312;-61
2022/05/26 04:28:42;;;;;;;;;;;;;;;21.91;46.18;101013.44;5015482;28;4259;-61
2022/05/26 04:31:09;;;;;;;;;;;;;;;21.91;45.99;101019.22;5009609;28;4301;-62
2022/05/26 04:33:36;;;;;;;;;;;;;;;21.89;46.36;101014.09;5008317;28;4088;-61
2022/05/26 04:36:05;;;;;;;;;;;;;;;21.90;45.99;101023.50;5008573;28;5283;-61
2022/05/26 04:38:32;;;;;;;;;;;;;;;21.91;46.09;101022.09;5009403;28;4194;-62
2022/05/26 04:41:05;;;;;;;;;;;;;;;21.90;46.17;101024.25;5008260;28;4179;-61
2022/05/26 04:43:31;;;;;;;;;;;;;;;21.90;46.14;101023.50;5008690;28;4282;-61
2022/05/26 04:45:58;;;;;;;;;;;;;;;21.89;46.22;101028.50;5007208;28;4115;-62
2022/05/26 04:48:24;;;;;;;;;;;;;;;21.90;46.15;101030.00;5009134;28;5262;-62
2022/05/26 04:50:51;;;;;;;;;;;;;;;21.89;46.33;101016.25;5009629;28;4067;-61
2022/05/26 04:53:17;;;;;;;;;;;;;;;21.90;46.09;101018.47;5009470;28;4323;-61
2022/05/26 04:55:44;;;;;;;;;;;;;;;21.89;46.22;101027.78;5008143;28;4117;-61
2022/05/26 04:58:10;;;;;;;;;;;;;;;21.89;46.33;101030.66;5009214;28;4288;-61
2022/05/26 05:00:37;;;;;;;;;;;;;;;21.89;46.17;101033.53;5006206;28;4307;-61
2022/05/26 05:03:03;;;;;;;;;;;;;;;21.89;46.16;101034.28;5010223;28;4103;-61
2022/05/26 05:05:29;;;;;;;;;;;;;;;21.89;46.17;101040.03;5006980;28;4989;-61
2022/05/26 05:07:56;;;;;;;;;;;;;;;21.89;46.30;101045.06;5010454;28;4202;-61
2022/05/26 05:10:22;;;;;;;;;;;;;;;21.89;46.40;101045.81;5016147;28;4131;-61
2022/05/26 05:12:49;;;;;;;;;;;;;;;21.90;46.13;101040.81;5013349;28;4130;-61
2022/05/26 05:15:41;;;;;;;;;;;;;;;21.89;46.18;101039.31;5015791;28;4070;-61
2022/05/26 05:18:08;;;;;;;;;;;;;;;21.89;46.18;101047.97;5015711;28;4174;-61
2022/05/26 05:20:34;;;;;;;;;;;;;;;21.89;46.15;101045.06;5014889;28;4252;-62
2022/05/26 05:23:01;;;;;;;;;;;;;;;21.89;46.18;101045.06;5015939;28;4174;-62
2022/05/26 05:25:28;;;;;;;;;;;;;;;21.89;46.14;101050.84;5016443;28;4162;-63
2022/05/26 05:27:59;;;;;;;;;;;;;;;21.89;46.15;101050.84;5017803;28;4261;-62
2022/05/26 05:30:29;;;;;;;;;;;;;;;21.88;46.24;101049.38;5014511;28;4229;-62
2022/05/26 05:33:02;;;;;;;;;;;;;;;21.88;46.08;101055.13;5016284;28;5412;-62
2022/05/26 05:35:28;;;;;;;;;;;;;;;21.89;46.36;101056.59;5011430;28;4358;-62
2022/05/26 05:37:55;;;;;;;;;;;;;;;21.89;46.40;101062.38;5017616;28;4128;-62
2022/05/26 05:40:21;;;;;;;;;;;;;;;21.89;46.12;101056.59;5012263;28;5406;-62
2022/05/26 05:42:48;;;;;;;;;;;;;;;21.89;46.29;101062.38;5023145;28;4226;-62
2022/05/26 05:45:14;;;;;;;;;;;;;;;21.89;46.12;101063.09;5012126;28;4526;-62
2022/05/26 05:47:40;;;;;;;;;;;;;;;21.89;46.29;101062.38;5013102;28;4663;-62
2022/05/26 05:50:07;;;;;;;;;;;;;;;21.88;46.42;101064.53;5017290;28;5300;-62
2022/05/26 05:52:33;;;;;;;;;;;;;;;21.88;46.40;101061.63;5013706;28;5475;-62
2022/05/26 05:55:00;;;;;;;;;;;;;;;21.88;46.49;101060.91;5012067;28;5326;-62
2022/05/26 05:57:32;;;;;;;;;;;;;;;21.89;46.42;101062.38;5015111;28;4283;-62
2022/05/26 05:59:59;;;;;;;;;;;;;;;21.88;46.38;101060.91;5013047;28;4219;-62
2022/05/26 06:02:25;;;;;;;;;;;;;;;21.88;46.33;101055.13;5016528;28;4000;-62
2022/05/26 06:05:00;;;;;;;;;;;;;;;21.87;46.32;101065.16;5020501;28;5120;-62
2022/05/26 06:07:26;;;;;;;;;;;;;;;21.87;46.55;101071.66;5018577;28;4190;-63
2022/05/26 06:09:52;;;;;;;;;;;;;;;21.88;46.31;101078.19;5016836;28;5281;-62
2022/05/26 06:12:20;;;;;;;;;;;;;;;21.87;46.66;101077.44;5019092;28;4061;-62
2022/05/26 06:14:46;;;;;;;;;;;;;;;21.86;46.52;101069.47;5014245;28;6302;-62
2022/05/26 06:17:13;;;;;;;;;;;;;;;21.85;46.36;101085.25;5019017;28;4009;-62
2022/05/26 06:19:39;;;;;;;;;;;;;;;21.85;46.36;101073.72;5019417;28;4252;-62
2022/05/26 06:22:07;;;;;;;;;;;;;;;21.84;46.37;101066.47;5019929;28;4160;-62
2022/05/26 06:24:33;;;;;;;;;;;;;;;21.84;46.50;101069.38;5019308;28;4242;-63
2022/05/26 06:27:00;;;;;;;;;;;;;;;21.84;46.40;101083.78;5019362;28;5318;-62
2022/05/26 06:37:41;;;;;;;;;;;;;;;21.84;46.51;101086.66;5019725;28;4109;-62
2022/05/26 06:40:07;;;;;;;;;;;;;;;21.85;46.53;101085.25;5016784;28;5234;-62
2022/05/26 06:42:34;;;;;;;;;;;;;;;21.84;46.51;101089.53;5013228;28;4263;-68
2022/05/26 06:45:00;;;;;;;;;;;;;;;21.84;46.50;101095.31;5019532;28;4639;-63
2022/05/26 06:47:27;;;;;;;;;;;;;;;21.83;46.58;101088.03;5018271;28;5247;-63
2022/05/26 06:49:53;;;;;;;;;;;;;;;21.83;46.39;101090.94;5019836;28;4242;-63
2022/05/26 06:52:21;;;;;;;;;;;;;;;21.83;46.53;101093.81;5014242;28;4501;-63
2022/05/26 06:54:48;;;;;;;;;;;;;;;21.83;46.50;101097.47;5015251;28;4244;-63
2022/05/26 06:57:17;;;;;;;;;;;;;;;21.86;46.80;101096.13;5015438;28;4283;-62
2022/05/26 06:59:44;;;;;;;;;;;;;;;21.86;46.82;101101.91;5019444;28;4134;-62
2022/05/26 07:02:11;;;;;;;;;;;;;;;21.87;46.92;101111.28;5016587;28;4356;-62
2022/05/26 07:04:37;;;;;;;;;;;;;;;21.84;47.05;101121.25;5015110;28;4195;-69
2022/05/26 07:07:04;;;;;;;;;;;;;;;21.83;47.05;101131.28;5017666;28;4271;-62
2022/05/26 07:09:31;;;;;;;;;;;;;;;21.84;47.30;101127.03;5014379;28;4544;-62
2022/05/26 07:11:58;;;;;;;;;;;;;;;21.83;47.35;101137.06;5016386;28;4249;-62
2022/05/26 07:14:24;;;;;;;;;;;;;;;21.83;47.38;101145.69;5015496;28;4257;-62
2022/05/26 07:16:51;;;;;;;;;;;;;;;21.82;47.58;101161.53;5017846;28;4209;-62
2022/05/26 07:19:17;;;;;;;;;;;;;;;21.82;47.91;101161.53;5017869;28;4167;-62
2022/05/26 07:21:46;;;;;;;;;;;;;;;21.84;48.02;101164.50;5018352;28;4189;-62
2022/05/26 07:24:16;;;;;;;;;;;;;;;21.85;48.30;101171.75;5011597;28;5178;-62
2022/05/26 07:26:42;;;;;;;;;;;;;;;21.82;48.15;101173.78;5010069;28;5288;-62
2022/05/26 07:29:09;;;;;;;;;;;;;;;21.84;48.15;101170.25;5010194;28;4173;-62
2022/05/26 07:31:35;;;;;;;;;;;;;;;21.82;48.14;101181.69;5011300;28;4291;-62
2022/05/26 07:34:14;;;;;;;;;;;;;;;21.82;48.37;101187.47;5010843;28;4188;-62
2022/05/26 07:42:14;;;;;;;;;;;;;;;21.87;48.68;101186.25;5010790;28;4058;-63
2022/05/26 07:44:41;;;;;;;;;;;;;;;21.89;48.34;101171.94;5008309;28;4346;-69
2022/05/26 07:47:08;;;;;;;;;;;;;;;21.92;48.25;101171.38;5005742;28;4332;-69
2022/05/26 07:49:35;;;;;;;;;;;;;;;21.92;48.83;101173.50;5009932;28;5552;-71
2022/05/26 07:52:01;;;;;;;;;;;;;;;21.91;48.40;101172.03;5011737;28;5492;-70
2022/05/26 07:54:28;;;;;;;;;;;;;;;21.95;48.62;101169.31;5006508;28;4229;-70
2022/05/26 07:56:55;;;;;;;;;;;;;;;21.95;48.70;101158.53;5012709;28;4087;-70
2022/05/26 07:59:21;;;;;;;;;;;;;;;22.00;48.69;101161.59;5013507;28;4948;-71
2022/05/26 08:01:48;;;;;;;;;;;;;;;21.98;49.01;101173.78;5013231;28;5493;-70
2022/05/26 08:04:15;;;;;;;;;;;;;;;21.99;48.85;101172.41;5013433;28;4750;-73
2022/05/26 08:06:46;;;;;;;;;;;;;;;21.99;49.15;101172.41;5011598;28;5265;-73
2022/05/26 08:09:14;;;;;;;;;;;;;;;21.98;50.21;101173.03;5010953;28;4354;-73
2022/05/26 08:11:40;;;;;;;;;;;;;;;21.97;49.51;101172.31;5011015;28;5258;-73
2022/05/26 08:14:07;;;;;;;;;;;;;;;21.97;49.55;101178.06;5012827;28;4246;-73
2022/05/26 08:16:34;;;;;;;;;;;;;;;21.98;49.33;101178.81;5012007;28;4258;-73
2022/05/26 08:19:00;;;;;;;;;;;;;;;22.00;49.42;101182.53;5009321;28;4222;-70
2022/05/26 08:21:27;;;;;;;;;;;;;;;22.00;48.94;101179.63;5013481;28;4418;-71
2022/05/26 08:23:53;;;;;;;;;;;;;;;22.00;49.08;101185.41;5011840;28;5347;-72
2022/05/26 08:26:20;;;;;;;;;;;;;;;22.00;49.03;101193.31;5013466;28;4078;-72
2022/05/26 08:28:46;;;;;;;;;;;;;;;22.00;49.05;101194.06;5014757;28;5645;-72
2022/05/26 08:31:15;;;;;;;;;;;;;;;22.02;48.96;101202.81;5012805;28;4158;-69
2022/05/26 08:33:42;;;;;;;;;;;;;;;22.01;48.92;101201.31;5013556;28;5472;-68
2022/05/26 08:36:09;;;;;;;;;;;;;;;22.00;48.68;101205.59;5013614;28;5396;-68
2022/05/26 08:38:36;;;;;;;;;;;;;;;22.00;48.95;101196.94;5013249;28;5395;-68
2022/05/26 08:41:02;;;;;;;;;;;;;;;22.00;48.93;101194.06;5012586;28;5281;-69
2022/05/26 08:43:36;;;;;;;;;;;;;;;22.05;48.49;101200.75;5017139;28;4173;-68
2022/05/26 08:46:03;;;;;;;;;;;;;;;22.03;48.77;101204.28;5014706;28;4188;-61
2022/05/26 08:48:48;;;;;;;;;;;;;;;22.03;48.66;101198.50;5016267;28;4227;-61
2022/05/26 08:51:22;;;;;;;;;;;;;;;22.05;48.38;101201.50;5013116;28;4458;-60
2022/05/26 08:53:48;;;;;;;;;;;;;;;22.08;48.44;101199.44;5013164;28;4189;-67
2022/05/26 08:56:15;;;;;;;;;;;;;;;22.05;48.13;101204.38;5015756;28;4507;-60
2022/05/26 08:58:46;;;;;;;;;;;;;;;21.98;48.28;101193.97;5013463;28;4827;-62
2022/05/26 09:01:18;;;;;;;;;;;;;;;21.99;48.44;101209.13;5015041;28;5489;-67
2022/05/26 09:03:45;;;;;;;;;;;;;;;22.00;48.34;101210.63;5011384;28;5647;-61
2022/05/26 09:06:12;;;;;;;;;;;;;;;22.00;48.43;101205.59;5014542;28;4229;-61
2022/05/26 09:14:12;;;;;;;;;;;;;;;22.04;48.06;101220.19;5016731;28;5233;-60
2022/05/26 09:16:43;;;;;;;;;;;;;;;22.04;48.08;101216.56;5020568;28;4167;-60
2022/05/26 09:19:10;;;;;;;;;;;;;;;22.04;48.11;101223.09;5016708;28;4195;-60
2022/05/26 09:21:36;;;;;;;;;;;;;;;22.05;48.25;101218.06;5017881;28;5242;-60
2022/05/26 09:24:16;;;;;;;;;;;;;;;22.04;48.10;101210.81;5015116;28;4526;-60
2022/05/26 09:27:01;;;;;;;;;;;;;;;22.05;48.08;101218.78;5015512;28;4246;-60
2022/05/26 09:29:31;;;;;;;;;;;;;;;22.03;48.13;101212.94;5018070;28;4077;-61
2022/05/26 09:31:58;;;;;;;;;;;;;;;22.04;48.16;101208.66;5017920;28;4033;-60
2022/05/26 09:35:04;;;;;;;;;;;;;;;22.04;47.99;101211.53;5015030;28;4296;-60
2022/05/26 09:37:37;;;;;;;;;;;;;;;22.03;48.04;101198.50;5014489;28;5555;-68
2022/05/26 09:40:11;;;;;;;;;;;;;;;22.04;48.07;101210.81;5020838;28;4150;-68
2022/05/26 09:42:37;;;;;;;;;;;;;;;22.05;48.02;101209.41;5021312;28;4537;-68
2022/05/26 09:45:07;;;;;;;;;;;;;;;22.03;48.08;101215.81;5018445;28;4276;-68
2022/05/26 09:47:37;;;;;;;;;;;;;;;22.05;47.63;101213.03;5021933;28;4267;-68
2022/05/26 09:50:05;;;;;;;;;;;;;;;22.05;47.73;101200.75;5025377;28;4285;-68
2022/05/26 09:52:44;;;;;;;;;;;;;;;22.05;47.69;101206.50;5019130;28;5330;-68
2022/05/26 09:55:14;;;;;;;;;;;;;;;22.06;47.79;101208.75;5019475;28;4445;-68
2022/05/26 09:57:41;;;;;;;;;;;;;;;22.05;47.77;101195.72;5009804;28;5296;-68
2022/05/26 10:00:13;;;;;;;;;;;;;;;22.05;47.79;101204.38;5011619;28;4254;-61
2022/05/26 10:02:40;;;;;;;;;;;;;;;22.07;47.67;101212.38;5016313;28;4175;-61
2022/05/26 10:05:23;;;;;;;;;;;;;;;22.07;47.69;101212.38;5021931;28;4059;-60
2022/05/26 10:08:10;;;;;;;;;;;;;;;22.07;47.95;101209.50;5015494;28;4273;-61
2022/05/26 10:10:42;;;;;;;;;;;;;;;22.07;47.88;101216.00;5017678;28;4946;-60
2022/05/26 10:13:11;;;;;;;;;;;;;;;22.10;47.76;101222.59;5020557;28;4246;-59
2022/05/26 10:15:40;;;;;;;;;;;;;;;22.10;48.08;101217.56;5019227;28;4150;-59
2022/05/26 10:18:11;;;;;;;;;;;;;;;22.09;47.92;101224.00;5017677;28;4238;-60
2022/05/26 10:20:40;;;;;;;;;;;;;;;22.08;48.04;101219.63;5032161;28;5480;-60
2022/05/26 10:23:13;;;;;;;;;;;;;;;22.08;47.73;101228.28;5019023;28;4279;-62
2022/05/26 10:25:43;;;;;;;;;;;;;;;22.07;47.86;101232.56;5024095;28;5276;-60
2022/05/26 10:28:09;;;;;;;;;;;;;;;22.08;48.02;101239.81;5016321;28;5534;-67
2022/05/26 10:30:43;;;;;;;;;;;;;;;22.06;47.83;101231.06;5016689;28;4317;-67
2022/05/26 10:33:28;;;;;;;;;;;;;;;22.07;47.82;101229.69;5015188;28;4257;-60
2022/05/26 10:36:05;;;;;;;;;;;;;;;22.06;47.98;101237.59;5012973;28;4190;-68
2022/05/26 10:38:51;;;;;;;;;;;;;;;22.06;47.85;101237.59;5030871;28;5410;-60
2022/05/26 10:41:17;;;;;;;;;;;;;;;22.06;47.75;101226.06;5018301;28;4197;-61
2022/05/26 10:43:46;;;;;;;;;;;;;;;22.07;47.80;101226.78;5017541;28;4256;-61
2022/05/26 10:46:12;;;;;;;;;;;;;;;22.07;47.81;101215.25;5018597;28;5472;-61
2022/05/26 10:48:40;;;;;;;;;;;;;;;22.06;47.79;101217.41;5017694;28;5329;-61
2022/05/26 10:51:10;;;;;;;;;;;;;;;22.06;47.79;101223.19;5014985;28;5352;-61
2022/05/26 10:53:47;;;;;;;;;;;;;;;22.06;48.01;101214.53;5030272;28;4540;-62
2022/05/26 10:56:21;;;;;;;;;;;;;;;22.07;47.79;101215.25;5016156;28;4224;-60
2022/05/26 10:58:49;;;;;;;;;;;;;;;22.08;47.72;101211.75;5015022;28;4103;-61
2022/05/26 11:01:28;;;;;;;;;;;;;;;22.09;47.59;101207.44;5016339;28;4228;-68
2022/05/26 11:03:55;;;;;;;;;;;;;;;22.08;47.78;101200.19;5016518;28;4206;-62
2022/05/26 11:06:25;;;;;;;;;;;;;;;22.09;47.80;101201.69;5016490;28;4250;-62
2022/05/26 11:08:56;;;;;;;;;;;;;;;22.10;47.80;101208.91;5018578;28;4145;-62
2022/05/26 11:11:36;;;;;;;;;;;;;;;22.10;47.52;101208.91;5019098;28;4348;-62
2022/05/26 11:14:09;;;;;;;;;;;;;;;22.09;47.55;101210.31;5017781;28;4384;-62
2022/05/26 11:19:25;;;;;;;;;;;;;;;22.12;47.44;101220.56;5020035;28;4416;-61
2022/05/26 11:21:52;;;;;;;;;;;;;;;22.12;47.46;101211.91;5014515;28;4139;-61
2022/05/26 11:24:18;;;;;;;;;;;;;;;22.12;47.47;101216.94;5018506;28;4054;-60
2022/05/26 11:26:49;;;;;;;;;;;;;;;22.11;47.50;101203.91;5017095;28;4193;-60
2022/05/26 11:29:27;;;;;;;;;;;;;;;22.10;47.53;101217.56;5013037;28;4163;-61
2022/05/26 11:38:14;;;;;;;;;;;;;;;22.09;47.75;101218.25;5055598;28;4215;-67
2022/05/26 11:40:59;;;;;;;;;;;;;;;22.09;47.52;101227.63;5017979;28;4209;-61
2022/05/26 11:43:28;;;;;;;;;;;;;;;22.09;47.57;101224.75;5017331;28;5275;-61
2022/05/26 11:45:55;;;;;;;;;;;;;;;22.11;47.48;101221.22;5016792;28;4386;-66
2022/05/26 11:48:30;;;;;;;;;;;;;;;22.10;47.60;101214.69;5017542;28;4415;-60
2022/05/26 11:51:02;;;;;;;;;;;;;;;22.10;47.61;101217.56;5017313;28;3999;-60
2022/05/26 11:53:38;;;;;;;;;;;;;;;22.10;47.48;101197.38;5019301;28;4513;-60
2022/05/26 11:56:23;;;;;;;;;;;;;;;22.10;47.66;101211.81;5019390;28;5370;-60
2022/05/26 11:59:13;;;;;;;;;;;;;;;22.10;47.44;101214.69;5018564;28;4171;-60
2022/05/26 12:01:39;;;;;;;;;;;;;;;22.10;47.43;101220.44;5011536;28;4173;-60
2022/05/26 12:04:14;;;;;;;;;;;;;;;22.10;47.39;101214.69;5019552;28;5207;-60
2022/05/26 12:06:54;;;;;;;;;;;;;;;22.10;47.31;101213.94;5015062;28;4210;-59
2022/05/26 12:09:21;;;;;;;;;;;;;;;22.10;47.53;101214.69;5018502;28;4073;-60
2022/05/26 12:11:55;;;;;;;;;;;;;;;22.11;47.34;101210.41;5017869;28;4138;-60
2022/05/26 12:14:22;;;;;;;;;;;;;;;22.11;47.20;101207.53;5017399;28;4242;-60
2022/05/26 12:16:48;;;;;;;;;;;;;;;22.11;47.19;101204.66;5018084;28;4166;-60
2022/05/26 12:19:34;;;;;;;;;;;;;;;22.11;47.41;101209.69;5030835;28;4097;-60
2022/05/26 12:22:11;;;;;;;;;;;;;;;22.10;47.59;101217.56;5017986;28;4242;-60
2022/05/26 12:24:37;;;;;;;;;;;;;;;22.10;47.44;101220.44;5018766;28;5729;-60
2022/05/26 12:27:04;;;;;;;;;;;;;;;22.11;47.53;101216.19;5014151;28;4119;-59
2022/05/26 12:29:48;;;;;;;;;;;;;;;22.12;47.54;101216.94;5016238;28;4192;-60
2022/05/26 12:32:19;;;;;;;;;;;;;;;22.12;47.37;101206.13;5015442;28;4282;-61
2022/05/26 12:35:05;;;;;;;;;;;;;;;22.11;47.39;101216.19;5015878;28;4224;-62
2022/05/26 12:37:40;;;;;;;;;;;;;;;22.11;47.42;101207.53;5015677;28;4337;-62
2022/05/26 12:40:13;;;;;;;;;;;;;;;22.12;47.75;101211.91;5017208;28;4170;-59
2022/05/26 12:42:47;;;;;;;;;;;;;;;22.12;47.40;101211.91;5016618;28;4153;-59
2022/05/26 12:45:27;;;;;;;;;;;;;;;22.14;47.41;101202.59;5030807;28;4260;-60
2022/05/26 12:48:09;;;;;;;;;;;;;;;22.14;47.35;101197.56;5014042;28;4244;-68
2022/05/26 12:50:39;;;;;;;;;;;;;;;22.15;47.40;101199.06;5011757;28;4344;-60
2022/05/26 12:53:22;;;;;;;;;;;;;;;22.14;47.64;101194.69;5028191;28;4192;-68
2022/05/26 12:55:53;;;;;;;;;;;;;;;22.14;47.55;101188.91;5018068;28;4258;-61
2022/05/26 12:58:22;;;;;;;;;;;;;;;22.15;47.46;101192.53;5014563;28;4294;-68
2022/05/26 13:00:49;;;;;;;;;;;;;;;22.15;47.52;101199.06;5017603;28;4121;-60
2022/05/26 13:03:18;;;;;;;;;;;;;;;22.15;47.33;101190.41;5012952;28;4240;-60
2022/05/26 13:06:07;;;;;;;;;;;;;;;22.16;47.27;101189.00;5014260;28;5477;-60
2022/05/26 13:08:49;;;;;;;;;;;;;;;22.16;47.41;101197.66;5013564;28;5539;-59
2022/05/26 13:11:17;;;;;;;;;;;;;;;22.18;47.41;101203.53;5013862;28;4272;-65
2022/05/26 13:13:48;;;;;;;;;;;;;;;22.20;47.53;101213.69;5015086;28;4249;-61
2022/05/26 13:16:23;;;;;;;;;;;;;;;22.21;47.25;101200.72;5016162;28;4190;-63
2022/05/26 13:18:50;;;;;;;;;;;;;;;22.20;47.31;101193.50;5013090;28;4162;-62
2022/05/26 13:21:17;;;;;;;;;;;;;;;22.22;47.17;101199.34;5016540;28;4514;-62
2022/05/26 13:23:43;;;;;;;;;;;;;;;22.21;46.48;101183.44;5014172;28;5263;-62
2022/05/26 13:26:11;;;;;;;;;;;;;;;22.21;46.40;101204.38;5012947;28;4251;-62
2022/05/26 13:28:37;;;;;;;;;;;;;;;22.21;46.35;101200.72;5016243;28;4233;-62
2022/05/26 13:34:04;;;;;;;;;;;;;;;22.22;46.24;101208.00;5010484;28;5482;-69
2022/05/26 13:36:32;;;;;;;;;;;;;;;22.22;46.25;101190.69;5015216;28;4211;-62
2022/05/26 13:39:09;;;;;;;;;;;;;;;22.23;46.32;101195.09;5014215;28;5219;-62
2022/05/26 13:41:42;;;;;;;;;;;;;;;22.23;46.33;101197.97;5017862;28;5251;-62
2022/05/26 13:44:09;;;;;;;;;;;;;;;22.22;46.14;101191.47;5012144;28;4197;-62
2022/05/26 13:46:37;;;;;;;;;;;;;;;22.22;46.39;101197.22;5013790;28;4220;-63